Time;durP1;ratioP1;P1;durP2;ratioP2;P2;SDS_P1;SDS_P2;PMS_P1;PMS_P2;Temp;Humidity;BMP_temperature;BMP_pressure;BME280_temperature;BME280_humidity;BME280_pressure;Samples;Min_cycle;Max_cycle;Signal;HPM_P1;HPM_P2
2023/08/25 00:01:28;;;;;;;19.50;13.00;;;;;;;;;;5031933;28;20202;-71
2023/08/25 00:03:54;;;;;;;19.27;13.40;;;;;;;;;;5049880;28;20310;-71
2023/08/25 00:06:21;;;;;;;19.47;14.00;;;;;;;;;;5047905;28;20570;-71
2023/08/25 00:08:47;;;;;;;20.23;13.83;;;;;;;;;;5050585;28;20294;-71
2023/08/25 00:11:14;;;;;;;23.23;14.70;;;;;;;;;;5050531;28;20206;-69
2023/08/25 00:13:41;;;;;;;18.60;14.27;;;;;;;;;;5043366;28;20306;-71
2023/08/25 00:16:09;;;;;;;19.43;14.73;;;;;;;;;;5041541;28;20207;-71
2023/08/25 00:18:35;;;;;;;15.57;12.57;;;;;;;;;;5049192;28;20702;-71
2023/08/25 00:21:02;;;;;;;15.77;12.00;;;;;;;;;;5050212;28;20199;-71
2023/08/25 00:23:28;;;;;;;13.83;11.30;;;;;;;;;;5049608;28;20234;-71
2023/08/25 00:25:55;;;;;;;17.93;12.30;;;;;;;;;;5044330;28;20225;-71
2023/08/25 00:28:21;;;;;;;18.53;12.30;;;;;;;;;;5032221;28;20210;-70
2023/08/25 00:30:48;;;;;;;21.67;13.67;;;;;;;;;;5043110;28;20210;-71
2023/08/25 00:33:14;;;;;;;16.83;13.83;;;;;;;;;;5049524;28;20227;-70
2023/08/25 00:35:42;;;;;;;18.53;13.63;;;;;;;;;;5049907;28;20679;-71
2023/08/25 00:38:08;;;;;;;18.73;13.17;;;;;;;;;;5050271;28;20195;-71
2023/08/25 00:40:37;;;;;;;19.10;12.77;;;;;;;;;;5044959;28;20199;-71
2023/08/25 00:43:04;;;;;;;15.73;12.13;;;;;;;;;;5047761;28;20276;-71
2023/08/25 00:45:32;;;;;;;15.27;12.03;;;;;;;;;;5049567;28;20215;-71
2023/08/25 00:47:59;;;;;;;16.93;12.43;;;;;;;;;;5050498;28;20211;-71
2023/08/25 00:50:26;;;;;;;21.70;13.63;;;;;;;;;;5044397;28;20199;-71
2023/08/25 00:52:53;;;;;;;17.10;12.80;;;;;;;;;;5047159;28;20219;-71
2023/08/25 00:55:19;;;;;;;16.60;12.53;;;;;;;;;;5049430;28;20225;-71
2023/08/25 00:57:45;;;;;;;15.40;12.23;;;;;;;;;;5049831;28;20194;-71
2023/08/25 01:00:12;;;;;;;15.50;11.60;;;;;;;;;;5049739;28;20202;-70
2023/08/25 01:02:38;;;;;;;13.70;11.20;;;;;;;;;;5045688;28;20203;-70
2023/08/25 01:05:05;;;;;;;19.40;13.13;;;;;;;;;;5049613;28;20203;-71
2023/08/25 01:07:32;;;;;;;17.27;13.57;;;;;;;;;;5049480;28;20202;-71
2023/08/25 01:09:59;;;;;;;18.57;13.87;;;;;;;;;;5047725;28;20655;-71
2023/08/25 01:12:34;;;;;;;18.70;12.97;;;;;;;;;;5048796;28;20658;-70
2023/08/25 01:15:07;;;;;;;21.57;12.90;;;;;;;;;;5049184;28;20237;-71
2023/08/25 01:17:44;;;;;;;17.33;12.77;;;;;;;;;;5047529;28;20195;-70
2023/08/25 01:20:13;;;;;;;19.33;13.90;;;;;;;;;;5039116;28;20199;-70
2023/08/25 01:22:43;;;;;;;17.13;11.87;;;;;;;;;;5048530;28;20229;-71
2023/08/25 01:25:25;;;;;;;19.60;12.80;;;;;;;;;;5049363;28;20282;-70
2023/08/25 01:27:53;;;;;;;18.77;12.90;;;;;;;;;;5043009;28;20219;-71
2023/08/25 01:30:22;;;;;;;18.13;12.83;;;;;;;;;;5045888;28;20290;-71
2023/08/25 01:32:49;;;;;;;18.33;13.40;;;;;;;;;;5031377;28;20226;-71
2023/08/25 01:35:16;;;;;;;17.30;12.13;;;;;;;;;;5044864;28;20200;-71
2023/08/25 01:37:44;;;;;;;17.57;12.40;;;;;;;;;;5044902;28;20202;-70
2023/08/25 01:40:15;;;;;;;18.23;13.27;;;;;;;;;;5046281;28;20218;-71
2023/08/25 01:42:43;;;;;;;19.70;12.63;;;;;;;;;;5048543;28;20245;-71
2023/08/25 01:45:10;;;;;;;17.27;12.83;;;;;;;;;;5035889;28;20200;-71
2023/08/25 01:47:37;;;;;;;13.37;10.47;;;;;;;;;;5042666;28;20685;-70
2023/08/25 01:50:04;;;;;;;18.17;13.33;;;;;;;;;;5042655;28;20461;-69
2023/08/25 01:52:31;;;;;;;19.50;12.87;;;;;;;;;;5062842;28;20203;-70
2023/08/25 01:54:57;;;;;;;15.87;12.30;;;;;;;;;;5055470;28;20646;-70
2023/08/25 01:57:24;;;;;;;15.33;11.67;;;;;;;;;;5049452;28;20199;-71
2023/08/25 01:59:50;;;;;;;15.53;12.50;;;;;;;;;;5044177;28;20195;-71
2023/08/25 02:02:16;;;;;;;13.80;10.37;;;;;;;;;;5066110;28;20206;-71
2023/08/25 02:04:43;;;;;;;16.03;11.80;;;;;;;;;;5060563;28;20710;-71
2023/08/25 02:07:09;;;;;;;17.57;12.10;;;;;;;;;;5052592;28;20203;-70
2023/08/25 02:09:35;;;;;;;16.57;12.40;;;;;;;;;;5048418;28;20270;-70
2023/08/25 02:12:02;;;;;;;17.10;12.33;;;;;;;;;;5056762;28;20238;-71
2023/08/25 02:14:28;;;;;;;18.40;12.60;;;;;;;;;;5069952;28;20217;-71
2023/08/25 02:16:54;;;;;;;18.87;12.47;;;;;;;;;;5052465;28;20199;-70
2023/08/25 02:19:21;;;;;;;17.00;11.67;;;;;;;;;;5067980;28;20202;-70
2023/08/25 02:21:48;;;;;;;16.47;11.83;;;;;;;;;;5059981;28;20195;-71
2023/08/25 02:24:14;;;;;;;13.13;9.97;;;;;;;;;;5052286;28;20226;-70
2023/08/25 02:26:40;;;;;;;15.83;11.87;;;;;;;;;;5049297;28;20202;-71
2023/08/25 02:29:07;;;;;;;14.77;12.03;;;;;;;;;;5039579;28;20301;-70
2023/08/25 02:31:33;;;;;;;18.77;13.13;;;;;;;;;;5069917;28;20206;-71
2023/08/25 02:33:59;;;;;;;21.83;13.10;;;;;;;;;;5051815;28;20238;-70
2023/08/25 02:36:26;;;;;;;17.93;12.63;;;;;;;;;;5046828;28;20617;-71
2023/08/25 02:38:52;;;;;;;17.10;12.60;;;;;;;;;;5049096;28;20674;-70
2023/08/25 02:41:18;;;;;;;17.13;12.40;;;;;;;;;;5068511;28;20198;-70
2023/08/25 02:43:44;;;;;;;15.33;11.47;;;;;;;;;;5043688;28;20229;-71
2023/08/25 02:46:11;;;;;;;19.03;12.30;;;;;;;;;;5051744;28;20666;-70
2023/08/25 02:48:37;;;;;;;15.13;12.37;;;;;;;;;;5041038;28;20206;-71
2023/08/25 02:51:04;;;;;;;17.43;12.27;;;;;;;;;;5065963;28;20208;-68
2023/08/25 02:53:30;;;;;;;16.77;12.77;;;;;;;;;;5061578;28;20231;-70
2023/08/25 02:55:56;;;;;;;17.03;12.40;;;;;;;;;;5051579;28;20199;-70
2023/08/25 02:58:23;;;;;;;19.57;13.00;;;;;;;;;;5046776;28;20199;-71
2023/08/25 03:00:49;;;;;;;18.87;13.70;;;;;;;;;;5062279;28;20199;-71
2023/08/25 03:03:15;;;;;;;18.90;13.27;;;;;;;;;;5064155;28;20222;-71
2023/08/25 03:05:42;;;;;;;16.33;12.87;;;;;;;;;;5051165;28;20207;-70
2023/08/25 03:08:12;;;;;;;20.13;13.77;;;;;;;;;;5051712;28;20236;-71
2023/08/25 03:10:42;;;;;;;19.30;14.97;;;;;;;;;;5046342;28;20492;-71
2023/08/25 03:13:08;;;;;;;23.60;14.53;;;;;;;;;;5063580;28;20226;-70
2023/08/25 03:15:35;;;;;;;20.60;13.97;;;;;;;;;;5051542;28;20202;-71
2023/08/25 03:18:01;;;;;;;21.63;13.60;;;;;;;;;;5051834;28;20686;-71
2023/08/25 03:20:27;;;;;;;27.20;17.07;;;;;;;;;;5048524;28;20198;-71
2023/08/25 03:22:54;;;;;;;25.20;16.77;;;;;;;;;;5053084;28;20202;-71
2023/08/25 03:25:20;;;;;;;27.10;17.33;;;;;;;;;;5054391;28;20237;-70
2023/08/25 03:27:46;;;;;;;38.57;20.50;;;;;;;;;;5033530;28;20202;-70
2023/08/25 03:30:12;;;;;;;37.50;21.10;;;;;;;;;;5047410;28;20206;-70
2023/08/25 03:32:39;;;;;;;38.93;20.80;;;;;;;;;;5069623;28;20194;-70
2023/08/25 03:35:05;;;;;;;36.80;20.80;;;;;;;;;;5056552;28;20219;-70
2023/08/25 03:37:32;;;;;;;40.07;21.60;;;;;;;;;;5050805;28;20290;-71
2023/08/25 03:39:58;;;;;;;42.77;23.60;;;;;;;;;;5032298;28;20226;-71
2023/08/25 03:42:26;;;;;;;47.97;25.23;;;;;;;;;;5040217;28;20288;-70
2023/08/25 03:44:52;;;;;;;48.97;25.57;;;;;;;;;;5066004;28;20226;-71
2023/08/25 03:47:18;;;;;;;46.23;24.40;;;;;;;;;;5051014;28;20199;-71
2023/08/25 03:49:45;;;;;;;49.57;26.17;;;;;;;;;;5050635;28;20226;-70
2023/08/25 03:52:11;;;;;;;50.90;26.93;;;;;;;;;;5054488;28;20202;-70
2023/08/25 03:54:37;;;;;;;48.13;25.27;;;;;;;;;;5067617;28;20268;-71
2023/08/25 03:57:06;;;;;;;54.57;28.17;;;;;;;;;;5050641;28;20282;-71
2023/08/25 03:59:33;;;;;;;56.90;29.67;;;;;;;;;;5045697;28;20719;-69
2023/08/25 04:02:01;;;;;;;48.05;26.08;;;;;;;;;;5048824;28;20209;-71
2023/08/25 04:04:31;;;;;;;47.87;25.43;;;;;;;;;;5066977;28;20693;-71
2023/08/25 04:06:57;;;;;;;48.73;25.30;;;;;;;;;;5057322;28;20283;-70
2023/08/25 04:09:24;;;;;;;47.43;27.63;;;;;;;;;;5050212;28;20207;-70
2023/08/25 04:11:53;;;;;;;50.00;27.07;;;;;;;;;;5029339;28;20202;-71
2023/08/25 04:14:19;;;;;;;49.93;29.03;;;;;;;;;;5062608;28;20229;-69
2023/08/25 04:16:45;;;;;;;45.13;25.80;;;;;;;;;;5058485;28;20206;-69
2023/08/25 04:19:13;;;;;;;46.27;23.67;;;;;;;;;;5050444;28;20284;-69
2023/08/25 04:21:40;;;;;;;38.60;22.27;;;;;;;;;;5046232;28;20282;-69
2023/08/25 04:24:06;;;;;;;52.20;27.77;;;;;;;;;;5062628;28;20218;-69
2023/08/25 04:26:33;;;;;;;54.33;27.20;;;;;;;;;;5059839;28;20228;-69
2023/08/25 04:28:59;;;;;;;46.30;25.33;;;;;;;;;;5050369;28;20202;-69
2023/08/25 04:31:25;;;;;;;50.25;26.58;;;;;;;;;;5041192;28;20213;-69
2023/08/25 04:33:52;;;;;;;45.37;25.30;;;;;;;;;;5052075;28;20279;-70
2023/08/25 04:36:18;;;;;;;47.15;26.98;;;;;;;;;;5069658;28;20577;-70
2023/08/25 04:38:44;;;;;;;55.27;27.67;;;;;;;;;;5050185;28;20293;-69
2023/08/25 04:41:11;;;;;;;51.67;27.70;;;;;;;;;;5049674;28;20195;-68
2023/08/25 04:43:37;;;;;;;56.47;28.97;;;;;;;;;;5047807;28;20234;-69
2023/08/25 04:46:03;;;;;;;57.00;28.47;;;;;;;;;;5069219;28;20217;-69
2023/08/25 04:48:29;;;;;;;58.37;28.73;;;;;;;;;;5051967;28;20203;-69
2023/08/25 04:50:56;;;;;;;54.00;28.07;;;;;;;;;;5049314;28;20651;-70
2023/08/25 04:53:22;;;;;;;57.50;28.10;;;;;;;;;;5045762;28;20223;-69
2023/08/25 04:55:48;;;;;;;55.67;26.93;;;;;;;;;;5040596;28;20194;-69
2023/08/25 04:58:15;;;;;;;46.77;24.60;;;;;;;;;;5044354;28;20671;-69
2023/08/25 05:00:41;;;;;;;59.90;26.70;;;;;;;;;;5031561;28;20681;-70
2023/08/25 05:03:08;;;;;;;64.03;28.00;;;;;;;;;;5049370;28;20242;-69
2023/08/25 05:05:35;;;;;;;69.50;28.73;;;;;;;;;;5038786;28;20642;-69
2023/08/25 05:08:01;;;;;;;71.88;29.73;;;;;;;;;;5064442;28;20211;-69
2023/08/25 05:10:27;;;;;;;67.63;27.93;;;;;;;;;;5049129;28;20289;-69
2023/08/25 05:12:54;;;;;;;59.28;25.33;;;;;;;;;;5049275;28;20203;-70
2023/08/25 05:15:20;;;;;;;62.13;26.90;;;;;;;;;;5028829;28;20223;-70
2023/08/25 05:17:47;;;;;;;66.00;29.17;;;;;;;;;;5068907;28;20198;-69
2023/08/25 05:20:17;;;;;;;64.78;29.13;;;;;;;;;;5054304;28;20206;-69
2023/08/25 05:22:43;;;;;;;56.90;27.33;;;;;;;;;;5049088;28;20207;-69
2023/08/25 05:25:09;;;;;;;67.43;29.93;;;;;;;;;;5039845;28;20206;-69
2023/08/25 05:27:36;;;;;;;53.37;26.33;;;;;;;;;;5066531;28;20658;-69
2023/08/25 05:30:02;;;;;;;59.35;27.25;;;;;;;;;;5055912;28;20203;-69
2023/08/25 05:32:28;;;;;;;50.00;25.48;;;;;;;;;;5049184;28;20256;-69
2023/08/25 05:34:55;;;;;;;55.13;26.23;;;;;;;;;;5045949;28;20227;-69
2023/08/25 05:37:21;;;;;;;50.20;24.90;;;;;;;;;;5036734;28;20198;-70
2023/08/25 05:39:47;;;;;;;51.88;26.02;;;;;;;;;;5069781;28;20245;-69
2023/08/25 05:42:14;;;;;;;46.10;24.88;;;;;;;;;;5052728;28;20198;-69
2023/08/25 05:44:40;;;;;;;45.33;24.52;;;;;;;;;;5050155;28;20225;-70
2023/08/25 05:47:06;;;;;;;44.42;25.35;;;;;;;;;;5050675;28;20206;-70
2023/08/25 05:49:32;;;;;;;43.15;23.65;;;;;;;;;;5053381;28;20577;-69
2023/08/25 05:51:59;;;;;;;44.45;23.30;;;;;;;;;;5052484;28;20286;-69
2023/08/25 05:54:25;;;;;;;43.92;22.83;;;;;;;;;;5044570;28;20231;-69
2023/08/25 05:56:52;;;;;;;45.20;23.08;;;;;;;;;;5048402;28;20199;-70
2023/08/25 05:59:18;;;;;;;44.08;21.95;;;;;;;;;;5048529;28;20198;-70
2023/08/25 06:01:45;;;;;;;35.88;20.38;;;;;;;;;;5052332;28;20206;-69
2023/08/25 06:04:11;;;;;;;33.97;19.92;;;;;;;;;;5051462;28;20229;-70
2023/08/25 06:06:38;;;;;;;34.08;19.98;;;;;;;;;;5048873;28;20289;-70
2023/08/25 06:09:05;;;;;;;31.58;18.95;;;;;;;;;;5063744;28;20670;-69
2023/08/25 06:11:31;;;;;;;31.40;19.23;;;;;;;;;;5063268;28;20554;-69
2023/08/25 06:13:58;;;;;;;33.70;19.58;;;;;;;;;;5052141;28;20234;-70
2023/08/25 06:16:26;;;;;;;32.95;19.75;;;;;;;;;;5052316;28;20199;-71
2023/08/25 06:18:52;;;;;;;28.10;18.48;;;;;;;;;;5046952;28;20282;-69
2023/08/25 06:21:19;;;;;;;25.63;17.83;;;;;;;;;;5046764;28;20205;-71
2023/08/25 06:23:45;;;;;;;26.75;17.40;;;;;;;;;;5051890;28;20231;-69
2023/08/25 06:26:12;;;;;;;24.50;15.88;;;;;;;;;;5047137;28;20823;-70
2023/08/25 06:28:38;;;;;;;24.35;15.68;;;;;;;;;;5050601;28;20269;-71
2023/08/25 06:31:08;;;;;;;23.02;15.85;;;;;;;;;;5072467;28;20213;-69
2023/08/25 06:33:34;;;;;;;23.08;15.60;;;;;;;;;;5054144;28;20718;-70
2023/08/25 06:36:00;;;;;;;22.08;16.08;;;;;;;;;;5034176;28;20313;-69
2023/08/25 06:38:27;;;;;;;26.35;16.20;;;;;;;;;;5044543;28;20206;-69
2023/08/25 06:40:55;;;;;;;21.30;15.30;;;;;;;;;;5038987;28;20370;-71
2023/08/25 06:43:21;;;;;;;23.85;16.63;;;;;;;;;;5038297;28;20789;-70
2023/08/25 06:45:47;;;;;;;20.75;14.23;;;;;;;;;;5051738;28;20289;-70
2023/08/25 06:48:14;;;;;;;22.35;15.13;;;;;;;;;;5051007;28;20317;-70
2023/08/25 06:50:40;;;;;;;24.27;16.27;;;;;;;;;;5044308;28;20214;-69
2023/08/25 06:53:07;;;;;;;26.23;17.02;;;;;;;;;;5051988;28;20567;-69
2023/08/25 06:55:34;;;;;;;25.38;16.85;;;;;;;;;;5051565;28;20253;-69
2023/08/25 06:58:01;;;;;;;23.27;15.75;;;;;;;;;;5050135;28;20199;-70
2023/08/25 07:00:27;;;;;;;23.92;14.85;;;;;;;;;;5057731;28;20209;-70
2023/08/25 07:02:53;;;;;;;24.73;16.80;;;;;;;;;;5052340;28;20222;-70
2023/08/25 07:05:20;;;;;;;25.67;16.38;;;;;;;;;;5051732;28;20659;-70
2023/08/25 07:07:47;;;;;;;26.33;15.93;;;;;;;;;;5031946;28;20208;-70
2023/08/25 07:10:13;;;;;;;24.02;16.00;;;;;;;;;;5049943;28;20294;-71
2023/08/25 07:12:40;;;;;;;28.08;17.13;;;;;;;;;;5069430;28;20620;-70
2023/08/25 07:15:10;;;;;;;21.88;15.10;;;;;;;;;;5054555;28;20219;-70
2023/08/25 07:17:37;;;;;;;24.60;16.45;;;;;;;;;;5051523;28;20234;-69
2023/08/25 07:20:08;;;;;;;20.38;15.18;;;;;;;;;;5051602;28;20199;-70
2023/08/25 07:22:35;;;;;;;20.85;15.02;;;;;;;;;;5050297;28;20252;-70
2023/08/25 07:25:01;;;;;;;24.52;16.25;;;;;;;;;;5050935;28;20230;-69
2023/08/25 07:27:27;;;;;;;21.85;16.48;;;;;;;;;;5051015;28;20627;-70
2023/08/25 07:29:54;;;;;;;21.05;14.82;;;;;;;;;;5042810;28;20282;-70
2023/08/25 07:32:20;;;;;;;18.33;14.57;;;;;;;;;;5048055;28;20211;-70
2023/08/25 07:34:47;;;;;;;19.20;14.93;;;;;;;;;;5049648;28;20219;-69
2023/08/25 07:37:13;;;;;;;20.13;14.73;;;;;;;;;;5050954;28;20199;-68
2023/08/25 07:39:40;;;;;;;20.60;14.30;;;;;;;;;;5051037;28;20256;-70
2023/08/25 07:42:08;;;;;;;18.85;13.95;;;;;;;;;;5043266;28;20573;-70
2023/08/25 07:44:37;;;;;;;30.25;19.08;;;;;;;;;;5050115;28;20223;-70
2023/08/25 07:47:04;;;;;;;24.77;17.27;;;;;;;;;;5051294;28;20203;-70
2023/08/25 07:49:31;;;;;;;21.85;14.75;;;;;;;;;;5050788;28;20202;-70
2023/08/25 07:51:58;;;;;;;26.98;18.38;;;;;;;;;;5049540;28;20194;-69
2023/08/25 07:54:25;;;;;;;29.92;19.77;;;;;;;;;;5050447;28;20657;-68
2023/08/25 07:56:51;;;;;;;35.22;19.77;;;;;;;;;;5050548;28;20206;-71
2023/08/25 07:59:18;;;;;;;28.95;18.90;;;;;;;;;;5050601;28;20194;-69
2023/08/25 08:01:45;;;;;;;27.95;18.67;;;;;;;;;;5070809;28;20205;-70
2023/08/25 08:04:11;;;;;;;25.13;17.98;;;;;;;;;;5056499;28;20218;-70
2023/08/25 08:06:38;;;;;;;24.45;16.88;;;;;;;;;;5049994;28;20241;-70
2023/08/25 08:09:06;;;;;;;30.38;18.90;;;;;;;;;;5045259;28;20225;-70
2023/08/25 08:11:34;;;;;;;25.35;17.77;;;;;;;;;;5064503;28;20194;-70
2023/08/25 08:14:00;;;;;;;25.65;16.20;;;;;;;;;;5057419;28;20724;-70
2023/08/25 08:16:26;;;;;;;20.95;15.02;;;;;;;;;;5050355;28;20229;-70
2023/08/25 08:18:53;;;;;;;17.42;13.38;;;;;;;;;;5047183;28;20202;-71
2023/08/25 08:21:19;;;;;;;17.73;13.25;;;;;;;;;;5050419;28;20198;-71
2023/08/25 08:23:45;;;;;;;23.42;15.43;;;;;;;;;;5067541;28;20234;-70
2023/08/25 08:26:12;;;;;;;22.92;16.20;;;;;;;;;;5049826;28;20662;-68
2023/08/25 08:28:38;;;;;;;18.33;13.85;;;;;;;;;;5050302;28;20203;-70
2023/08/25 08:31:05;;;;;;;24.25;16.23;;;;;;;;;;5050844;28;20212;-71
2023/08/25 08:33:32;;;;;;;26.75;16.60;;;;;;;;;;5069562;28;20221;-71
2023/08/25 08:35:58;;;;;;;26.40;16.98;;;;;;;;;;5049892;28;20230;-71
2023/08/25 08:38:25;;;;;;;27.10;18.52;;;;;;;;;;5050200;28;20205;-69
2023/08/25 08:40:52;;;;;;;20.58;14.80;;;;;;;;;;5045442;28;20230;-71
2023/08/25 08:43:19;;;;;;;25.23;18.48;;;;;;;;;;5065042;28;20299;-70
2023/08/25 08:45:51;;;;;;;21.98;14.82;;;;;;;;;;5059648;28;20218;-70
2023/08/25 08:48:19;;;;;;;20.38;14.68;;;;;;;;;;5052661;28;20289;-70
2023/08/25 08:50:46;;;;;;;21.33;12.98;;;;;;;;;;5047125;28;20226;-69
2023/08/25 08:53:14;;;;;;;16.75;11.93;;;;;;;;;;5061056;28;20218;-70
2023/08/25 08:55:42;;;;;;;14.25;9.95;;;;;;;;;;5060111;28;20222;-70
2023/08/25 08:58:08;;;;;;;10.43;7.88;;;;;;;;;;5049707;28;20253;-69
2023/08/25 09:00:35;;;;;;;13.35;6.55;;;;;;;;;;5040662;28;20294;-70
2023/08/25 09:03:04;;;;;;;9.63;6.72;;;;;;;;;;5051728;28;20217;-70
2023/08/25 09:05:34;;;;;;;10.45;5.45;;;;;;;;;;5043621;28;20207;-71
2023/08/25 09:08:03;;;;;;;7.07;4.82;;;;;;;;;;5031702;28;20211;-70
2023/08/25 09:10:30;;;;;;;8.35;5.57;;;;;;;;;;5049927;28;20742;-69
2023/08/25 09:12:56;;;;;;;7.80;5.93;;;;;;;;;;5046261;28;20201;-69
2023/08/25 09:15:24;;;;;;;8.30;5.35;;;;;;;;;;5072972;28;20214;-69
2023/08/25 09:18:04;;;;;;;7.55;4.75;;;;;;;;;;5053858;28;20264;-70
2023/08/25 09:20:33;;;;;;;10.68;5.72;;;;;;;;;;5053253;28;20210;-69
2023/08/25 09:23:00;;;;;;;7.15;5.70;;;;;;;;;;5044438;28;20725;-70
2023/08/25 09:25:27;;;;;;;9.68;5.57;;;;;;;;;;5072737;28;20244;-71
2023/08/25 09:27:57;;;;;;;9.93;6.40;;;;;;;;;;5053691;28;20222;-71
2023/08/25 09:30:32;;;;;;;8.40;5.78;;;;;;;;;;5053323;28;20217;-71
2023/08/25 09:33:02;;;;;;;10.05;5.63;;;;;;;;;;5047088;28;20245;-70
2023/08/25 09:35:29;;;;;;;9.27;6.10;;;;;;;;;;5065565;28;20299;-70
2023/08/25 09:37:56;;;;;;;9.13;6.63;;;;;;;;;;5069551;28;20197;-71
2023/08/25 09:40:22;;;;;;;9.18;6.13;;;;;;;;;;5052924;28;20195;-70
2023/08/25 09:42:48;;;;;;;9.43;5.95;;;;;;;;;;5052291;28;20527;-70
2023/08/25 09:45:15;;;;;;;10.07;7.03;;;;;;;;;;5044420;28;20208;-70
2023/08/25 09:47:42;;;;;;;7.75;5.78;;;;;;;;;;5052137;28;20626;-71
2023/08/25 09:50:18;;;;;;;10.25;6.22;;;;;;;;;;5059864;28;20203;-69
2023/08/25 09:52:46;;;;;;;8.65;6.20;;;;;;;;;;5052534;28;20401;-70
2023/08/25 09:55:13;;;;;;;9.38;5.68;;;;;;;;;;5048974;28;20214;-69
2023/08/25 09:57:42;;;;;;;12.82;5.95;;;;;;;;;;5068928;28;20256;-70
2023/08/25 10:00:09;;;;;;;10.43;5.82;;;;;;;;;;5059554;28;20285;-71
2023/08/25 10:02:36;;;;;;;6.55;5.10;;;;;;;;;;5052367;28;20198;-70
2023/08/25 10:05:05;;;;;;;8.27;5.72;;;;;;;;;;5047890;28;20258;-70
2023/08/25 10:07:32;;;;;;;8.32;5.03;;;;;;;;;;5050661;28;20203;-70
2023/08/25 10:09:58;;;;;;;8.38;5.40;;;;;;;;;;5052489;28;20198;-70
2023/08/25 10:12:25;;;;;;;9.30;5.10;;;;;;;;;;5052105;28;20214;-70
2023/08/25 10:14:56;;;;;;;5.40;4.75;;;;;;;;;;5051906;28;20226;-70
2023/08/25 10:17:24;;;;;;;7.60;4.68;;;;;;;;;;5053655;28;20229;-70
2023/08/25 10:19:54;;;;;;;7.47;5.15;;;;;;;;;;5069561;28;20665;-70
2023/08/25 10:22:21;;;;;;;6.50;5.30;;;;;;;;;;5051479;28;20585;-69
2023/08/25 10:24:47;;;;;;;7.43;5.45;;;;;;;;;;5048323;28;20215;-69
2023/08/25 10:27:14;;;;;;;9.50;5.38;;;;;;;;;;5050326;28;20602;-68
2023/08/25 10:29:40;;;;;;;8.05;6.03;;;;;;;;;;5068134;28;20206;-69
2023/08/25 10:32:09;;;;;;;7.88;4.68;;;;;;;;;;5063080;28;20209;-70
2023/08/25 10:34:46;;;;;;;5.85;4.40;;;;;;;;;;5062748;28;20314;-69
2023/08/25 10:37:13;;;;;;;5.07;4.18;;;;;;;;;;5044068;28;20218;-70
2023/08/25 10:39:47;;;;;;;6.03;4.40;;;;;;;;;;5051538;28;20286;-69
2023/08/25 10:42:25;;;;;;;7.97;4.07;;;;;;;;;;5051694;28;20235;-68
2023/08/25 10:44:55;;;;;;;4.50;3.50;;;;;;;;;;5047592;28;20226;-70
2023/08/25 10:47:22;;;;;;;5.03;3.90;;;;;;;;;;5051904;28;20278;-69
2023/08/25 10:49:52;;;;;;;5.03;3.47;;;;;;;;;;5051388;28;20210;-70
2023/08/25 10:52:19;;;;;;;5.95;3.60;;;;;;;;;;5051475;28;20289;-70
2023/08/25 10:54:46;;;;;;;6.60;3.35;;;;;;;;;;5046922;28;20301;-68
2023/08/25 10:57:25;;;;;;;3.60;2.70;;;;;;;;;;5051534;28;20386;-70
2023/08/25 10:59:55;;;;;;;4.18;3.20;;;;;;;;;;5051296;28;20222;-70
2023/08/25 11:02:34;;;;;;;4.53;3.00;;;;;;;;;;5046323;28;20611;-70
2023/08/25 11:05:19;;;;;;;6.47;3.20;;;;;;;;;;5043223;28;20222;-71
2023/08/25 11:07:48;;;;;;;4.43;2.80;;;;;;;;;;5051073;28;20209;-69
2023/08/25 11:10:14;;;;;;;8.32;2.75;;;;;;;;;;5049352;28;20199;-70
2023/08/25 11:12:41;;;;;;;3.83;2.70;;;;;;;;;;5047902;28;20199;-70
2023/08/25 11:15:18;;;;;;;4.47;2.78;;;;;;;;;;5050914;28;20199;-70
2023/08/25 11:17:45;;;;;;;3.90;2.30;;;;;;;;;;5051375;28;20202;-70
2023/08/25 11:20:12;;;;;;;4.57;2.63;;;;;;;;;;5047878;28;20203;-69
2023/08/25 11:22:55;;;;;;;3.28;2.45;;;;;;;;;;5047795;28;20199;-69
2023/08/25 11:25:38;;;;;;;4.65;2.55;;;;;;;;;;5034044;28;20322;-69
2023/08/25 11:28:04;;;;;;;2.85;2.55;;;;;;;;;;5070585;28;20202;-70
2023/08/25 11:30:33;;;;;;;4.57;2.70;;;;;;;;;;5054864;28;20210;-71
2023/08/25 11:33:00;;;;;;;4.45;2.83;;;;;;;;;;5050217;28;20223;-71
2023/08/25 11:35:26;;;;;;;4.60;2.50;;;;;;;;;;5044108;28;20367;-69
2023/08/25 11:37:52;;;;;;;4.13;3.10;;;;;;;;;;5069053;28;20651;-70
2023/08/25 11:40:19;;;;;;;4.68;3.28;;;;;;;;;;5056465;28;20297;-71
2023/08/25 11:42:46;;;;;;;5.22;3.30;;;;;;;;;;5050130;28;20205;-70
2023/08/25 11:45:12;;;;;;;4.70;3.70;;;;;;;;;;5043852;28;20203;-71
2023/08/25 11:47:38;;;;;;;4.80;4.00;;;;;;;;;;5057201;28;20194;-69
2023/08/25 11:50:06;;;;;;;6.18;3.60;;;;;;;;;;5066584;28;20199;-70
2023/08/25 11:52:33;;;;;;;4.75;3.50;;;;;;;;;;5048618;28;20887;-69
2023/08/25 11:54:59;;;;;;;6.47;3.72;;;;;;;;;;5049596;28;20221;-70
2023/08/25 11:57:35;;;;;;;4.70;3.72;;;;;;;;;;5050512;28;20229;-70
2023/08/25 12:00:03;;;;;;;8.07;4.18;;;;;;;;;;5050081;28;20201;-69
2023/08/25 12:02:29;;;;;;;5.72;4.47;;;;;;;;;;5048156;28;20220;-70
2023/08/25 12:04:56;;;;;;;6.25;4.47;;;;;;;;;;5049563;28;20251;-71
2023/08/25 12:07:29;;;;;;;5.10;3.65;;;;;;;;;;5032904;28;20754;-70
2023/08/25 12:09:57;;;;;;;6.25;3.78;;;;;;;;;;5045898;28;20210;-70
2023/08/25 12:12:23;;;;;;;6.15;4.00;;;;;;;;;;5032179;28;20264;-70
2023/08/25 12:14:50;;;;;;;4.85;3.50;;;;;;;;;;5049333;28;20230;-71
2023/08/25 12:17:20;;;;;;;6.88;3.80;;;;;;;;;;5049843;28;20226;-70
2023/08/25 12:19:46;;;;;;;6.28;3.90;;;;;;;;;;5047416;28;20226;-70
2023/08/25 12:22:15;;;;;;;6.93;3.83;;;;;;;;;;5050731;28;20198;-71
2023/08/25 12:24:42;;;;;;;6.43;3.45;;;;;;;;;;5049493;28;20226;-71
2023/08/25 12:27:08;;;;;;;5.80;3.70;;;;;;;;;;5046786;28;20203;-72
2023/08/25 12:29:35;;;;;;;7.20;3.95;;;;;;;;;;5049865;28;20213;-71
2023/08/25 12:32:02;;;;;;;5.45;3.30;;;;;;;;;;5049462;28;20678;-71
2023/08/25 12:34:29;;;;;;;9.52;3.78;;;;;;;;;;5046776;28;20309;-70
2023/08/25 12:36:55;;;;;;;6.10;3.45;;;;;;;;;;5048982;28;20322;-70
2023/08/25 12:39:21;;;;;;;4.72;3.70;;;;;;;;;;5050165;28;20300;-70
2023/08/25 12:41:48;;;;;;;6.30;4.00;;;;;;;;;;5049502;28;20708;-71
2023/08/25 12:44:14;;;;;;;6.38;3.80;;;;;;;;;;5043130;28;20227;-71
2023/08/25 12:46:41;;;;;;;6.85;3.40;;;;;;;;;;5046219;28;20206;-70
2023/08/25 12:49:07;;;;;;;5.05;3.33;;;;;;;;;;5032017;28;20257;-72
2023/08/25 12:51:33;;;;;;;3.85;3.08;;;;;;;;;;5049720;28;20207;-72
2023/08/25 12:54:14;;;;;;;5.35;4.15;;;;;;;;;;5049179;28;20226;-71
2023/08/25 12:56:41;;;;;;;8.20;3.33;;;;;;;;;;5041641;28;20273;-71
2023/08/25 12:59:07;;;;;;;6.00;3.47;;;;;;;;;;5069430;28;20202;-70
2023/08/25 13:01:34;;;;;;;7.55;3.97;;;;;;;;;;5053504;28;20199;-71
2023/08/25 13:04:00;;;;;;;4.90;3.42;;;;;;;;;;5048975;28;20226;-72
2023/08/25 13:06:27;;;;;;;4.50;3.40;;;;;;;;;;5045911;28;20206;-71
2023/08/25 13:08:53;;;;;;;5.30;3.90;;;;;;;;;;5067469;28;20206;-71
2023/08/25 13:11:19;;;;;;;6.05;3.85;;;;;;;;;;5055269;28;20203;-72
2023/08/25 13:13:45;;;;;;;5.35;4.20;;;;;;;;;;5048468;28;20233;-71
2023/08/25 13:16:12;;;;;;;5.22;4.07;;;;;;;;;;5040088;28;20302;-72
2023/08/25 13:18:38;;;;;;;5.32;3.75;;;;;;;;;;5049445;28;20206;-71
2023/08/25 13:21:04;;;;;;;4.47;3.70;;;;;;;;;;5023330;28;20198;-71
2023/08/25 13:23:31;;;;;;;9.15;3.90;;;;;;;;;;5048901;28;20226;-71
2023/08/25 13:26:12;;;;;;;5.55;3.78;;;;;;;;;;5041750;28;20202;-71
2023/08/25 13:28:39;;;;;;;6.50;3.80;;;;;;;;;;5049079;28;20207;-72
2023/08/25 13:31:05;;;;;;;6.53;3.80;;;;;;;;;;5049141;28;20203;-72
2023/08/25 13:33:31;;;;;;;5.88;3.50;;;;;;;;;;5049008;28;20227;-71
2023/08/25 13:36:03;;;;;;;5.00;3.60;;;;;;;;;;5040338;28;20249;-73
2023/08/25 13:38:29;;;;;;;5.15;3.55;;;;;;;;;;5049208;28;20203;-72
2023/08/25 13:40:55;;;;;;;6.75;3.72;;;;;;;;;;5048814;28;20199;-71
2023/08/25 13:43:22;;;;;;;9.23;4.03;;;;;;;;;;5030893;28;20223;-72
2023/08/25 13:45:49;;;;;;;5.20;4.03;;;;;;;;;;5048820;28;20285;-71
2023/08/25 13:48:15;;;;;;;11.35;3.78;;;;;;;;;;5049242;28;20276;-71
2023/08/25 13:50:42;;;;;;;5.68;4.40;;;;;;;;;;5045395;28;20202;-71
2023/08/25 13:53:10;;;;;;;6.10;4.20;;;;;;;;;;5048967;28;20219;-69
2023/08/25 13:55:37;;;;;;;9.43;4.22;;;;;;;;;;5049184;28;20282;-71
2023/08/25 13:58:03;;;;;;;7.63;4.40;;;;;;;;;;5051176;28;20272;-71
2023/08/25 14:00:30;;;;;;;7.90;4.35;;;;;;;;;;5044888;28;20206;-71
2023/08/25 14:02:57;;;;;;;6.93;4.30;;;;;;;;;;5034450;28;20670;-72
2023/08/25 14:05:23;;;;;;;6.20;4.28;;;;;;;;;;5052548;28;20289;-71
2023/08/25 14:07:50;;;;;;;6.78;4.65;;;;;;;;;;5045037;28;20290;-72
2023/08/25 14:10:17;;;;;;;8.75;4.75;;;;;;;;;;5051433;28;20199;-71
2023/08/25 14:12:43;;;;;;;5.75;3.75;;;;;;;;;;5051325;28;20206;-72
2023/08/25 14:15:10;;;;;;;6.68;3.97;;;;;;;;;;5051919;28;20199;-70
2023/08/25 14:17:36;;;;;;;7.68;4.20;;;;;;;;;;5055042;28;20222;-71
2023/08/25 14:20:03;;;;;;;6.55;4.32;;;;;;;;;;5068985;28;20199;-71
2023/08/25 14:22:29;;;;;;;6.30;4.15;;;;;;;;;;5052506;28;20607;-71
2023/08/25 14:24:55;;;;;;;8.75;4.60;;;;;;;;;;5052041;28;20226;-71
2023/08/25 14:27:21;;;;;;;11.73;4.65;;;;;;;;;;5045957;28;20203;-72